createdAt,value
2023-02-01T00:24:46.298Z,25
2023-02-01T00:53:43.246Z,23
2023-02-01T01:22:41.901Z,23
2023-02-01T01:51:17.587Z,22
2023-02-01T02:20:07.882Z,21
2023-02-01T02:48:59.346Z,22
2023-02-01T03:17:53.781Z,20
2023-02-01T03:46:51.609Z,20
2023-02-01T04:15:57.829Z,13
2023-02-01T04:45:00.740Z,13
2023-02-01T05:13:56.685Z,11
2023-02-01T05:42:58.545Z,11
2023-02-01T06:11:46.211Z,15
2023-02-01T06:40:41.753Z,11
2023-02-01T07:09:28.458Z,13
2023-02-01T07:38:19.854Z,10
2023-02-01T08:07:29.587Z,8
2023-02-01T08:36:28.486Z,10
2023-02-01T09:05:47.676Z,8
2023-02-01T09:34:05.383Z,10
2023-02-01T10:03:05.378Z,10
2023-02-01T10:32:01.376Z,10
2023-02-01T11:00:50.731Z,9
2023-02-01T11:29:45.273Z,10
2023-02-01T11:58:32.036Z,11
2023-02-01T12:27:26.036Z,11
2023-02-01T12:56:19.608Z,10
2023-02-01T13:25:16.800Z,10
2023-02-01T13:54:10.149Z,11
2023-02-01T14:22:34.046Z,11
2023-02-01T14:50:55.648Z,10
2023-02-01T15:19:22.231Z,8
2023-02-01T15:47:36.569Z,10
2023-02-01T16:15:55.835Z,10
2023-02-01T16:44:24.362Z,11
2023-02-01T17:12:39.868Z,10
2023-02-01T17:41:07.123Z,10
2023-02-01T18:09:20.036Z,13
2023-02-01T18:37:34.549Z,14
2023-02-01T19:05:54.916Z,11
2023-02-01T19:34:10.461Z,11
2023-02-01T20:02:33.466Z,11
2023-02-01T20:30:48.441Z,11
2023-02-01T20:59:06.438Z,10
2023-02-01T21:27:20.647Z,11
2023-02-01T21:55:37.632Z,11
2023-02-01T22:23:45.313Z,11
2023-02-01T22:52:43.451Z,10
2023-02-01T23:21:40.071Z,8
2023-02-01T23:50:30.614Z,9
